createdAt,value
2017-09-30T00:00:34.285Z,29.50
2017-09-30T00:03:00.751Z,29.40
2017-09-30T00:05:27.170Z,31.73
2017-09-30T00:07:53.765Z,31.13
2017-09-30T00:10:20.254Z,31.10
2017-09-30T00:12:46.683Z,31.47
2017-09-30T00:15:13.128Z,32.27
2017-09-30T00:17:39.739Z,32.50
2017-09-30T00:20:06.281Z,31.23
2017-09-30T00:22:32.712Z,31.73
2017-09-30T00:24:59.139Z,32.30
2017-09-30T00:27:25.602Z,31.03
2017-09-30T00:29:52.089Z,30.80
2017-09-30T00:32:19.267Z,35.30
2017-09-30T00:34:45.694Z,31.53
2017-09-30T00:37:12.168Z,32.33
2017-09-30T00:39:38.660Z,31.37
2017-09-30T00:42:05.075Z,31.07
2017-09-30T00:44:32.337Z,30.37
2017-09-30T00:46:58.763Z,30.37
2017-09-30T00:49:25.275Z,33.00
2017-09-30T00:51:52.446Z,29.53
2017-09-30T00:54:18.877Z,36.17
2017-09-30T00:56:45.351Z,35.50
2017-09-30T00:59:11.774Z,37.57
2017-09-30T01:01:38.296Z,37.53
2017-09-30T01:04:04.731Z,39.77
2017-09-30T01:06:31.161Z,34.97
2017-09-30T01:08:57.828Z,32.77
2017-09-30T01:11:24.244Z,40.23
2017-09-30T01:13:50.695Z,36.70
2017-09-30T01:16:17.104Z,38.90
2017-09-30T01:18:43.666Z,40.27
2017-09-30T01:21:10.088Z,37.43
2017-09-30T01:23:36.518Z,34.50
2017-09-30T01:26:02.987Z,35.43
2017-09-30T01:28:30.174Z,36.87
2017-09-30T01:30:56.614Z,36.17
2017-09-30T01:33:23.055Z,35.50
2017-09-30T01:35:49.491Z,33.87
2017-09-30T01:38:15.920Z,38.10
2017-09-30T01:40:42.365Z,37.90
2017-09-30T01:43:08.792Z,38.40
2017-09-30T01:45:35.246Z,35.50
2017-09-30T01:48:01.699Z,40.90
2017-09-30T01:50:28.907Z,36.07
2017-09-30T01:52:55.343Z,38.90
2017-09-30T01:55:21.795Z,40.10
2017-09-30T01:57:48.243Z,42.97
2017-09-30T02:00:14.664Z,41.80
2017-09-30T02:02:41.118Z,36.73
2017-09-30T02:05:08.337Z,39.50
2017-09-30T02:07:34.772Z,34.70
2017-09-30T02:10:01.218Z,36.27
2017-09-30T02:12:27.705Z,32.40
2017-09-30T02:14:54.168Z,40.70
2017-09-30T02:17:20.599Z,36.97
2017-09-30T02:19:47.044Z,41.13
2017-09-30T02:22:13.491Z,39.90
2017-09-30T02:24:39.935Z,42.13
2017-09-30T02:27:07.135Z,40.70
2017-09-30T02:29:33.552Z,35.97
2017-09-30T02:31:59.996Z,30.53
2017-09-30T02:34:26.419Z,39.37
2017-09-30T02:36:52.845Z,47.77
2017-09-30T02:39:19.295Z,41.67
2017-09-30T02:41:45.723Z,50.03
2017-09-30T02:44:12.191Z,50.67
2017-09-30T02:46:38.688Z,39.87
2017-09-30T02:49:05.158Z,50.00
2017-09-30T02:51:31.617Z,41.73
2017-09-30T02:53:58.783Z,42.97
2017-09-30T02:56:25.227Z,50.77
2017-09-30T02:58:51.638Z,47.57
2017-09-30T03:01:18.871Z,45.40
2017-09-30T03:03:45.377Z,52.37
2017-09-30T03:06:11.827Z,45.67
2017-09-30T03:08:38.281Z,48.20
2017-09-30T03:11:05.507Z,39.80
2017-09-30T03:13:31.923Z,48.97
2017-09-30T03:15:58.334Z,38.53
2017-09-30T03:18:24.786Z,41.40
2017-09-30T03:20:51.249Z,42.23
2017-09-30T03:23:17.732Z,47.90
2017-09-30T03:25:44.352Z,46.90
2017-09-30T03:28:10.734Z,39.77
2017-09-30T03:30:37.167Z,47.00
2017-09-30T03:33:03.649Z,43.47
2017-09-30T03:35:30.104Z,49.57
2017-09-30T03:37:56.559Z,47.67
2017-09-30T03:40:23.079Z,42.37
2017-09-30T03:42:49.535Z,44.70
2017-09-30T03:45:16.092Z,43.70
2017-09-30T03:47:43.293Z,39.27
2017-09-30T03:50:09.918Z,38.57
2017-09-30T03:52:36.359Z,40.50
2017-09-30T03:55:02.810Z,40.70
2017-09-30T03:57:29.420Z,47.20
2017-09-30T03:59:55.966Z,48.33
2017-09-30T04:02:22.402Z,44.63
2017-09-30T04:04:48.887Z,46.27
2017-09-30T04:07:16.249Z,45.50
2017-09-30T04:09:43.442Z,42.47
2017-09-30T04:12:09.899Z,38.37
2017-09-30T04:14:36.304Z,37.90
2017-09-30T04:17:02.755Z,36.87
2017-09-30T04:19:29.150Z,38.30
2017-09-30T04:21:55.654Z,41.83
2017-09-30T04:24:22.831Z,39.03
2017-09-30T04:26:49.375Z,36.80
2017-09-30T04:29:15.793Z,36.40
2017-09-30T04:31:43.066Z,35.57
2017-09-30T04:34:09.744Z,34.27
2017-09-30T04:36:36.347Z,34.83
2017-09-30T04:39:02.798Z,34.03
2017-09-30T04:41:29.226Z,32.07
2017-09-30T04:43:55.863Z,29.23
2017-09-30T04:46:22.278Z,35.70
2017-09-30T04:48:48.719Z,36.57
2017-09-30T04:51:15.214Z,42.60
2017-09-30T04:53:42.906Z,34.90
2017-09-30T04:56:09.433Z,35.03
2017-09-30T04:58:36.196Z,35.20
2017-09-30T05:01:02.986Z,41.60
2017-09-30T05:03:29.870Z,33.20
2017-09-30T05:05:56.674Z,36.00
2017-09-30T05:08:24.249Z,31.23
2017-09-30T05:10:51.070Z,31.27
2017-09-30T05:13:18.331Z,34.23
2017-09-30T05:15:45.737Z,32.07
2017-09-30T05:18:12.380Z,32.63
2017-09-30T05:20:38.822Z,38.77
2017-09-30T05:23:05.254Z,33.40
2017-09-30T05:25:31.718Z,30.00
2017-09-30T05:27:58.885Z,36.50
2017-09-30T05:30:25.329Z,41.47
2017-09-30T05:32:51.764Z,39.00
2017-09-30T05:35:18.215Z,34.73
2017-09-30T05:37:44.676Z,34.50
2017-09-30T05:40:11.095Z,38.97
2017-09-30T05:42:37.612Z,36.40
2017-09-30T05:45:04.043Z,37.93
2017-09-30T05:47:30.557Z,36.70
2017-09-30T05:49:57.002Z,34.37
2017-09-30T05:52:23.442Z,33.73
2017-09-30T05:54:49.864Z,33.17
2017-09-30T05:57:16.326Z,31.33
2017-09-30T05:59:42.750Z,33.20
2017-09-30T06:02:09.192Z,30.70
2017-09-30T06:04:35.644Z,33.40
2017-09-30T06:07:02.150Z,33.30
2017-09-30T06:09:28.600Z,30.90
2017-09-30T06:11:55.054Z,28.20
2017-09-30T06:14:22.247Z,28.13
2017-09-30T06:16:48.687Z,28.00
2017-09-30T06:19:15.193Z,29.40
2017-09-30T06:21:42.379Z,25.20
2017-09-30T06:24:08.798Z,25.83
2017-09-30T06:26:35.266Z,25.70
2017-09-30T06:29:01.714Z,27.70
2017-09-30T06:31:28.915Z,27.67
2017-09-30T06:33:55.371Z,25.33
2017-09-30T06:36:21.819Z,26.43
2017-09-30T06:38:48.267Z,29.20
2017-09-30T06:41:15.462Z,30.17
2017-09-30T06:43:41.916Z,23.47
2017-09-30T06:46:08.351Z,24.27
2017-09-30T06:48:34.767Z,21.70
2017-09-30T06:51:01.251Z,22.57
2017-09-30T06:53:27.703Z,26.03
2017-09-30T06:55:54.898Z,25.70
2017-09-30T06:58:21.309Z,27.20
2017-09-30T07:00:47.759Z,24.07
2017-09-30T07:03:14.331Z,23.73
2017-09-30T07:05:42.271Z,21.90
2017-09-30T07:08:09.654Z,20.50
2017-09-30T07:10:37.560Z,20.03
2017-09-30T07:13:04.148Z,21.27
2017-09-30T07:15:30.591Z,23.10
2017-09-30T07:17:57.027Z,22.60
2017-09-30T07:20:23.450Z,22.77
2017-09-30T07:22:49.891Z,23.00
2017-09-30T07:25:17.079Z,20.70
2017-09-30T07:30:32.230Z,21.40
2017-09-30T07:32:58.639Z,19.80
2017-09-30T07:35:25.118Z,20.33
2017-09-30T07:37:52.308Z,21.80
2017-09-30T07:40:18.764Z,22.90
2017-09-30T07:42:45.247Z,20.43
2017-09-30T07:45:11.716Z,20.77
2017-09-30T07:47:38.178Z,20.90
2017-09-30T07:50:04.659Z,21.87
2017-09-30T07:52:31.129Z,21.07
2017-09-30T07:54:57.572Z,22.17
2017-09-30T07:57:25.527Z,20.93
2017-09-30T07:59:51.951Z,22.40
2017-09-30T08:02:18.402Z,22.30
2017-09-30T08:04:45.604Z,21.10
2017-09-30T08:07:12.079Z,21.93
2017-09-30T08:09:38.631Z,20.83
2017-09-30T08:12:05.165Z,21.70
2017-09-30T08:14:31.626Z,21.57
2017-09-30T08:16:58.169Z,22.60
2017-09-30T08:19:24.635Z,22.57
2017-09-30T08:21:51.089Z,22.37
2017-09-30T08:24:17.605Z,21.20
2017-09-30T08:26:44.027Z,20.70
2017-09-30T08:29:10.455Z,20.90
2017-09-30T08:31:36.920Z,22.30
2017-09-30T08:34:03.384Z,19.70
2017-09-30T08:36:30.556Z,20.20
2017-09-30T08:38:57.054Z,19.60
2017-09-30T08:41:23.506Z,21.00
2017-09-30T08:43:50.743Z,20.40
2017-09-30T08:46:17.927Z,20.37
2017-09-30T08:51:33.323Z,18.83
2017-09-30T08:53:59.891Z,20.57
2017-09-30T08:56:26.550Z,17.97
2017-09-30T08:58:52.993Z,18.97
2017-09-30T09:01:20.211Z,18.33
2017-09-30T09:03:46.655Z,20.23
2017-09-30T09:06:13.126Z,19.00
2017-09-30T09:08:40.302Z,19.60
2017-09-30T09:11:06.792Z,19.40
2017-09-30T09:13:33.990Z,20.80
2017-09-30T09:16:04.196Z,19.60
2017-09-30T09:18:30.699Z,19.13
2017-09-30T09:20:57.963Z,18.40
2017-09-30T09:23:25.164Z,18.00
2017-09-30T09:25:51.630Z,19.50
2017-09-30T09:28:18.207Z,19.50
2017-09-30T09:30:44.639Z,18.20
2017-09-30T09:33:11.069Z,20.93
2017-09-30T09:35:37.562Z,21.70
2017-09-30T09:38:04.011Z,20.20
2017-09-30T09:40:31.207Z,21.00
2017-09-30T09:42:57.699Z,21.43
2017-09-30T09:45:24.871Z,21.23
2017-09-30T09:47:51.322Z,22.70
2017-09-30T09:50:17.783Z,21.03
2017-09-30T09:52:44.226Z,21.03
2017-09-30T09:55:10.666Z,22.20
2017-09-30T09:57:37.954Z,20.80
2017-09-30T10:00:04.421Z,20.10
2017-09-30T10:02:30.859Z,18.77
2017-09-30T10:04:57.319Z,19.00
2017-09-30T10:07:23.751Z,18.30
2017-09-30T10:09:50.955Z,17.70
2017-09-30T10:12:17.400Z,18.60
2017-09-30T10:14:43.949Z,17.77
2017-09-30T10:17:10.427Z,17.13
2017-09-30T10:19:36.855Z,18.87
2017-09-30T10:22:04.039Z,15.93
2017-09-30T10:24:30.511Z,15.80
2017-09-30T10:26:56.970Z,14.10
2017-09-30T10:29:24.185Z,11.50
2017-09-30T10:31:50.638Z,12.13
2017-09-30T10:34:17.857Z,11.37
2017-09-30T10:36:44.274Z,12.90
2017-09-30T10:39:10.726Z,13.63
2017-09-30T10:41:37.188Z,11.87
2017-09-30T10:44:04.459Z,10.93
2017-09-30T10:46:30.874Z,13.37
2017-09-30T10:48:58.107Z,13.10
2017-09-30T10:51:24.697Z,11.77
2017-09-30T10:53:51.124Z,12.17
2017-09-30T10:56:17.866Z,11.93
2017-09-30T10:58:44.306Z,11.57
2017-09-30T11:01:10.743Z,11.60
2017-09-30T11:03:37.270Z,12.27
2017-09-30T11:06:03.771Z,10.97
2017-09-30T11:08:30.981Z,9.83
2017-09-30T11:10:57.487Z,8.37
2017-09-30T11:13:24.052Z,9.20
2017-09-30T11:15:50.539Z,7.10
2017-09-30T11:18:17.009Z,8.07
2017-09-30T11:20:43.478Z,7.17
2017-09-30T11:23:09.953Z,7.27
2017-09-30T11:25:36.467Z,6.60
2017-09-30T11:28:03.756Z,7.60
2017-09-30T11:30:30.242Z,6.87
2017-09-30T11:32:57.455Z,6.73
2017-09-30T11:35:23.884Z,6.63
2017-09-30T11:37:50.436Z,6.63
2017-09-30T11:40:16.901Z,7.10
2017-09-30T11:42:44.338Z,6.70
2017-09-30T11:45:10.790Z,7.03
2017-09-30T11:47:38.540Z,7.67
2017-09-30T11:50:05.040Z,7.10
2017-09-30T11:53:44.442Z,7.60
2017-09-30T11:56:10.908Z,7.07
2017-09-30T11:58:37.355Z,7.03
2017-09-30T12:01:03.865Z,7.53
2017-09-30T12:03:30.363Z,6.77
2017-09-30T12:05:57.656Z,8.60
2017-09-30T12:08:24.094Z,11.50
2017-09-30T12:10:50.549Z,8.70
2017-09-30T12:13:17.000Z,8.60
2017-09-30T12:15:43.442Z,8.30
2017-09-30T12:18:10.651Z,7.83
2017-09-30T12:20:37.101Z,7.50
2017-09-30T12:23:03.577Z,7.90
2017-09-30T12:25:30.926Z,7.70
2017-09-30T12:27:58.179Z,8.03
2017-09-30T12:30:25.453Z,7.27
2017-09-30T12:32:51.878Z,7.93
2017-09-30T12:35:18.328Z,6.57
2017-09-30T12:37:44.726Z,7.00
2017-09-30T12:40:11.941Z,7.10
2017-09-30T12:42:38.390Z,7.90
2017-09-30T12:45:04.860Z,8.37
2017-09-30T12:47:31.408Z,7.60
2017-09-30T12:49:57.880Z,6.73
2017-09-30T12:52:24.323Z,5.90
2017-09-30T12:54:50.804Z,6.23
2017-09-30T12:57:18.446Z,5.97
2017-09-30T12:59:44.882Z,7.13
2017-09-30T13:02:12.135Z,6.37
2017-09-30T13:04:38.555Z,6.80
2017-09-30T13:07:05.735Z,6.80
2017-09-30T13:09:32.282Z,6.30
2017-09-30T13:11:58.736Z,6.40
2017-09-30T13:14:25.187Z,5.97
2017-09-30T13:16:51.658Z,6.57
2017-09-30T13:19:18.147Z,6.97
2017-09-30T13:21:44.591Z,6.50
2017-09-30T13:24:11.062Z,6.13
2017-09-30T13:26:37.533Z,6.30
2017-09-30T13:29:04.006Z,6.10
2017-09-30T13:31:31.212Z,6.87
2017-09-30T13:33:57.722Z,6.87
2017-09-30T13:36:24.229Z,7.20
2017-09-30T13:38:51.649Z,6.63
2017-09-30T13:41:18.255Z,8.40
2017-09-30T13:43:45.396Z,6.53
2017-09-30T13:46:11.854Z,8.60
2017-09-30T13:48:38.362Z,7.70
2017-09-30T13:51:04.867Z,7.30
2017-09-30T13:53:32.100Z,8.33
2017-09-30T13:55:58.536Z,7.87
2017-09-30T13:58:25.016Z,7.90
2017-09-30T14:00:51.443Z,7.47
2017-09-30T14:03:17.920Z,7.70
2017-09-30T14:05:44.506Z,7.13
2017-09-30T14:08:10.970Z,6.97
2017-09-30T14:10:37.490Z,7.63
2017-09-30T14:13:04.003Z,7.70
2017-09-30T14:15:30.536Z,8.53
2017-09-30T14:17:57.031Z,7.63
2017-09-30T14:20:23.590Z,7.30
2017-09-30T14:22:50.831Z,7.73
2017-09-30T14:25:17.278Z,7.87
2017-09-30T14:27:44.438Z,8.03
2017-09-30T14:30:10.921Z,7.83
2017-09-30T14:32:37.371Z,7.70
2017-09-30T14:35:03.881Z,6.60
2017-09-30T14:37:30.301Z,7.90
2017-09-30T14:39:56.755Z,6.87
2017-09-30T14:42:23.269Z,7.50
2017-09-30T14:44:49.788Z,8.67
2017-09-30T14:47:16.491Z,8.87
2017-09-30T14:49:43.724Z,6.87
2017-09-30T14:52:10.230Z,9.60
2017-09-30T14:54:36.650Z,9.80
2017-09-30T14:57:03.128Z,8.73
2017-09-30T14:59:29.635Z,9.03
2017-09-30T15:01:56.048Z,8.50
2017-09-30T15:04:22.519Z,9.40
2017-09-30T15:06:48.950Z,9.20
2017-09-30T15:09:15.427Z,8.87
2017-09-30T15:11:42.683Z,9.67
2017-09-30T15:14:09.200Z,8.97
2017-09-30T15:16:36.419Z,8.70
2017-09-30T15:19:02.877Z,8.47
2017-09-30T15:21:29.383Z,8.23
2017-09-30T15:23:55.882Z,10.10
2017-09-30T15:26:23.108Z,9.10
2017-09-30T15:31:39.051Z,10.20
2017-09-30T15:34:05.534Z,8.10
2017-09-30T15:36:32.055Z,10.27
2017-09-30T15:38:58.543Z,10.10
2017-09-30T15:41:28.182Z,10.37
2017-09-30T15:43:54.678Z,9.60
2017-09-30T15:46:21.208Z,9.93
2017-09-30T15:48:47.670Z,10.47
2017-09-30T15:51:14.247Z,9.93
2017-09-30T15:53:42.292Z,10.50
2017-09-30T15:56:08.802Z,10.80
2017-09-30T15:58:35.365Z,11.87
2017-09-30T16:01:02.018Z,11.83
2017-09-30T16:03:29.016Z,12.00
2017-09-30T16:05:55.479Z,11.43
2017-09-30T16:08:21.983Z,11.63
2017-09-30T16:10:48.453Z,12.20
2017-09-30T16:13:14.947Z,11.73
2017-09-30T16:15:41.656Z,12.93
2017-09-30T16:18:08.863Z,12.67
2017-09-30T16:20:35.330Z,10.57
2017-09-30T16:23:01.838Z,11.40
2017-09-30T16:25:28.368Z,12.70
2017-09-30T16:27:54.784Z,9.93
2017-09-30T16:30:21.225Z,13.53
2017-09-30T16:32:47.848Z,7.63
2017-09-30T16:35:14.337Z,9.47
2017-09-30T16:37:40.828Z,11.40
2017-09-30T16:40:07.331Z,10.30
2017-09-30T16:42:33.771Z,6.07
2017-09-30T16:45:00.959Z,11.77
2017-09-30T16:47:27.462Z,16.10
2017-09-30T16:49:53.970Z,9.60
2017-09-30T16:52:21.140Z,15.03
2017-09-30T16:54:47.556Z,9.37
2017-09-30T16:57:14.779Z,17.50
2017-09-30T16:59:42.723Z,16.37
2017-09-30T17:02:09.130Z,20.03
2017-09-30T17:04:35.580Z,14.67
2017-09-30T17:07:02.021Z,21.80
2017-09-30T17:09:28.513Z,21.50
2017-09-30T17:11:54.986Z,21.13
2017-09-30T17:14:21.452Z,21.10
2017-09-30T17:16:49.436Z,22.03
2017-09-30T17:19:16.594Z,19.43
2017-09-30T17:21:43.794Z,21.90
2017-09-30T17:24:10.227Z,21.87
2017-09-30T17:26:36.729Z,20.00
2017-09-30T17:29:03.314Z,14.00
2017-09-30T17:31:30.679Z,14.93
2017-09-30T17:33:57.179Z,18.10
2017-09-30T17:36:23.735Z,15.17
2017-09-30T17:38:50.257Z,13.67
2017-09-30T17:41:16.690Z,9.70
2017-09-30T17:43:43.224Z,9.33
2017-09-30T17:46:09.893Z,10.00
2017-09-30T17:48:36.623Z,6.80
2017-09-30T17:51:03.150Z,8.30
2017-09-30T17:53:29.564Z,9.77
2017-09-30T17:55:56.271Z,8.60
2017-09-30T17:58:22.739Z,8.77
2017-09-30T18:00:49.343Z,9.90
2017-09-30T18:03:15.843Z,6.40
2017-09-30T18:05:43.048Z,10.87
2017-09-30T18:08:09.526Z,7.37
2017-09-30T18:10:36.737Z,7.70
2017-09-30T18:15:53.782Z,9.00
2017-09-30T18:18:35.220Z,7.30
2017-09-30T18:21:01.736Z,8.43
2017-09-30T18:23:29.002Z,8.30
2017-09-30T18:25:55.456Z,9.23
2017-09-30T18:28:21.939Z,6.60
2017-09-30T18:30:48.523Z,7.93
2017-09-30T18:33:14.964Z,6.20
2017-09-30T18:35:41.460Z,7.53
2017-09-30T18:38:08.714Z,5.80
2017-09-30T18:40:35.917Z,3.13
2017-09-30T18:43:02.464Z,5.03
2017-09-30T18:45:28.943Z,4.97
2017-09-30T18:47:55.472Z,2.40
2017-09-30T18:50:22.848Z,2.67
2017-09-30T18:52:49.327Z,2.70
2017-09-30T18:55:15.813Z,3.07
2017-09-30T18:57:42.302Z,3.47
2017-09-30T19:00:08.928Z,3.47
2017-09-30T19:02:35.363Z,14.87
2017-09-30T19:05:01.967Z,7.20
2017-09-30T19:07:28.496Z,5.10
2017-09-30T19:09:54.981Z,6.23
2017-09-30T19:12:21.502Z,11.73
2017-09-30T19:14:48.163Z,5.97
2017-09-30T19:17:15.486Z,4.90
2017-09-30T19:19:41.957Z,5.53
2017-09-30T19:22:09.146Z,6.30
2017-09-30T19:24:35.631Z,7.50
2017-09-30T19:27:02.880Z,8.67
2017-09-30T19:29:30.353Z,8.67
2017-09-30T19:31:56.865Z,8.33
2017-09-30T19:34:23.395Z,8.30
2017-09-30T19:36:49.874Z,8.93
2017-09-30T19:39:16.316Z,9.30
2017-09-30T19:41:42.960Z,9.97
2017-09-30T19:44:09.382Z,9.63
2017-09-30T19:46:35.856Z,7.63
2017-09-30T19:49:02.360Z,8.97
2017-09-30T19:51:28.831Z,11.33
2017-09-30T19:53:55.295Z,10.47
2017-09-30T19:56:22.698Z,9.50
2017-09-30T19:58:49.231Z,9.37
2017-09-30T20:01:15.770Z,10.40
2017-09-30T20:03:42.343Z,7.67
2017-09-30T20:06:09.558Z,8.70
2017-09-30T20:08:36.137Z,10.20
2017-09-30T20:11:03.376Z,10.70
2017-09-30T20:13:30.557Z,7.00
2017-09-30T20:15:57.066Z,5.73
2017-09-30T20:18:24.230Z,7.90
2017-09-30T20:20:51.524Z,8.60
2017-09-30T20:23:18.074Z,6.30
2017-09-30T20:25:44.545Z,8.27
2017-09-30T20:28:11.851Z,8.23
2017-09-30T20:30:38.296Z,8.80
2017-09-30T20:33:04.935Z,7.77
2017-09-30T20:35:31.444Z,8.50
2017-09-30T20:37:57.968Z,10.27
2017-09-30T20:40:24.511Z,8.70
2017-09-30T20:42:50.998Z,7.00
2017-09-30T20:45:18.222Z,7.80
2017-09-30T20:47:44.653Z,7.67
2017-09-30T20:50:11.134Z,8.47
2017-09-30T20:55:27.001Z,9.10
2017-09-30T20:57:55.341Z,7.87
2017-09-30T21:00:22.617Z,8.63
2017-09-30T21:02:49.062Z,9.13
2017-09-30T21:05:16.880Z,9.33
2017-09-30T21:07:43.326Z,6.53
2017-09-30T21:10:09.840Z,6.10
2017-09-30T21:12:36.303Z,6.57
2017-09-30T21:15:02.784Z,6.37
2017-09-30T21:17:30.024Z,6.57
2017-09-30T21:19:56.645Z,8.40
2017-09-30T21:22:23.111Z,5.77
2017-09-30T21:24:50.320Z,9.00
2017-09-30T21:27:16.771Z,4.70
2017-09-30T21:29:43.220Z,4.80
2017-09-30T21:32:09.707Z,6.80
2017-09-30T21:34:36.179Z,7.00
2017-09-30T21:37:03.397Z,5.63
2017-09-30T21:39:29.811Z,5.67
2017-09-30T21:41:56.263Z,5.70
2017-09-30T21:44:22.742Z,6.20
2017-09-30T21:46:50.558Z,5.63
2017-09-30T21:49:17.032Z,5.03
2017-09-30T21:51:43.670Z,5.10
2017-09-30T21:54:10.110Z,5.87
2017-09-30T21:56:37.392Z,5.43
2017-09-30T21:59:03.839Z,5.13
2017-09-30T22:01:30.303Z,5.07
2017-09-30T22:03:56.742Z,5.30
2017-09-30T22:06:23.194Z,5.10
2017-09-30T22:08:50.442Z,5.37
2017-09-30T22:11:17.629Z,5.57
2017-09-30T22:13:44.222Z,4.83
2017-09-30T22:16:11.429Z,4.20
2017-09-30T22:18:37.871Z,4.10
2017-09-30T22:21:04.510Z,4.90
2017-09-30T22:23:30.979Z,4.80
2017-09-30T22:25:58.175Z,5.47
2017-09-30T22:28:24.658Z,5.20
2017-09-30T22:30:51.157Z,5.80
2017-09-30T22:33:17.654Z,5.30
2017-09-30T22:35:44.225Z,5.20
2017-09-30T22:38:10.714Z,5.60
2017-09-30T22:40:37.875Z,6.00
2017-09-30T22:43:04.329Z,6.37
2017-09-30T22:45:30.769Z,5.40
2017-09-30T22:47:57.207Z,6.13
2017-09-30T22:50:23.827Z,5.90
2017-09-30T22:52:50.282Z,6.47
2017-09-30T22:55:16.735Z,6.40
2017-09-30T22:57:43.160Z,4.87
2017-09-30T23:00:09.666Z,7.40
2017-09-30T23:02:36.195Z,6.80
2017-09-30T23:05:02.645Z,6.03
2017-09-30T23:07:29.101Z,6.80
2017-09-30T23:09:56.526Z,6.37
2017-09-30T23:12:22.996Z,6.27
2017-09-30T23:14:49.442Z,6.20
2017-09-30T23:17:15.871Z,6.60
2017-09-30T23:19:42.351Z,6.67
2017-09-30T23:22:08.803Z,5.07
2017-09-30T23:24:35.206Z,6.30
2017-09-30T23:27:01.677Z,5.67
2017-09-30T23:29:28.131Z,6.60
2017-09-30T23:31:54.570Z,6.43
2017-09-30T23:34:21.940Z,7.07
2017-09-30T23:36:49.126Z,8.30
2017-09-30T23:39:15.585Z,7.57
2017-09-30T23:41:42.032Z,6.97
2017-09-30T23:44:08.495Z,7.10
2017-09-30T23:46:35.668Z,6.83
2017-09-30T23:49:02.114Z,6.20
2017-09-30T23:51:28.566Z,6.90
2017-09-30T23:53:54.984Z,8.63
2017-09-30T23:56:21.434Z,7.57
2017-09-30T23:58:47.927Z,6.63
